Terminal Aerodrome Forecast
Issued by NWS Indianapolis, IN

Home | Current Version | Previous Version | Text Only | Print | Product List | Glossary On
Versions: 1 2 3 4 5 6 7 8 9 10 11 12 13 14 15 16 17 18 19 20 21 22 23 24 25 26 27 28 29
191
FTUS43 KIND 281422 AAC
TAFIND
TAF AMD
KIND 281422Z 2814/2918 12003KT P6SM SCT025 BKN120
     FM281800 12006KT P6SM VCTS SCT030CB BKN250
     FM290200 05005KT P6SM BKN250
     FM291400 07006KT P6SM SCT020 BKN250=

USA.gov is the U.S. government's official web portal to all federal, state and local government web resources and services.